Howard Landing, California
Current Conditions -  °F | °C
As of 3:58 PM on Wednesday 26 Nov 2014 (Local Time) from KSUU Reporting Station
Clear Clear  
Wind Chill: 66°   Ceiling: Unl
Heat Index: 66°   Visibility: 10mi
Dew Point: 49°   Wind: 6mph
Humidity: 55%   Direction: 60°ENE
Pressure: 30.22"   Gusts: NA
Location:  38.2298°N, 121.579°W
Report Text: KSUU 262358Z AUTO 06005KT 10SM CLR 19/10 A3022 RMK AO2 SLP240 T01870096 10193 20129 55011 $
Loading
Personal Weather Stations






























Interactive Weather Map New forecast layout! Learn more

10-Day Weather Forecast

Advertisements
Track Severe Weather on mobile